Domov               UVHVVR             MKGP            O straneh              
ZDRAVSTVENO VARSTVO RASTLIN
  MREŽA AGROMET. POSTAJ
 ► PROGNOSTIČNA OBVESTILA
AGROMETEOROLOŠKI PODATKI -
ARSO
OBVLADOVANJE TVEGANJ ZARADI
NEUGODNIH VREMENSKIH RAZMER
  ► NARAVNE NESREČE
  ► SUŠA/MOČA
  ► NAMAKANJE
  ► ŽLED (gozdarstvo)
KARTOGRAFSKI PRIKAZI
SPLETNE POVEZAVE
PROJEKTI IN PUBLIKACIJE

AGROMETEOROLOŠKA MREŽA: VREMENSKE POSTAJE IN FENOLOŠKA OPAZOVANJA

Pregled podatkov za lokacijo Blanca, meteorološka postaja 27263

Pregled senzorjev na lokaciji

ID Ime Zadnja
vrednost
Datum
zadnje
spremembe
Tip
senzorja
2153 Relativna vlaga 2 m (% RH) 92,2 % RH 19.8.2017 05:03 Generic 0 - 100 %
2154 Omočenost lista (U) 0 U 19.8.2017 05:03 A730WET
2155 Padavine 0.2 mm (mm) 0 mm 19.8.2017 05:04 Generic
2158 Temperatura 2 m ( °C) 15,1 °C 19.8.2017 05:03 Generic -40 - +60 °C

Pregled podatkov zadnjih 24 ur

Zap.
št.
Datum in čas Blanca
Omočenost
lista
Padavine
0.2
mm
Relativna
vlaga
2
m
Temperatura
2
m
0 19.8.2017 04:00 0 0 92,32 15,16
1 19.8.2017 03:30 0 0 92,22 15,17
2 19.8.2017 03:00 0 0 91,69 15,28
3 19.8.2017 02:30 0 0 91,4 15,72
4 19.8.2017 02:00 0 0 90,71 15,95
5 19.8.2017 01:30 0 0 90,22 16,33
6 19.8.2017 01:00 0 0 89,27 16,67
7 19.8.2017 00:30 0 0 88,13 16,97
8 19.8.2017 00:00 0 0 86,81 17,5
9 18.8.2017 23:30 0 0 83,21 18,13
10 18.8.2017 23:00 0 0 81,33 18,64
11 18.8.2017 22:30 0 0 83,68 18,64
12 18.8.2017 22:00 0 0 80,48 19,24
13 18.8.2017 21:30 0 0 80,59 19,62
14 18.8.2017 21:00 0 0 78,89 20,14
15 18.8.2017 20:30 0 0 75,53 20,75
16 18.8.2017 20:00 0 0 70,39 22
17 18.8.2017 19:30 0 0 66,4 22,72
18 18.8.2017 19:00 0 0 60,89 24,13
19 18.8.2017 18:30 0 0 47,91 27,57
20 18.8.2017 18:00 0 0 33,7 30,18
21 18.8.2017 17:30 0 0 30,08 31,41
22 18.8.2017 17:00 0 0 28 32,35
23 18.8.2017 16:30 0 0 26,59 33,16
24 18.8.2017 16:00 0 0 26,53 33,5
25 18.8.2017 15:30 0 0 27,3 33,33
26 18.8.2017 15:00 0 0 29,41 33,76
27 18.8.2017 14:30 0 0 33,9 31,68
28 18.8.2017 14:00 0 0 29,53 34,37
29 18.8.2017 13:30 0 0 30,82 34,15
30 18.8.2017 13:00 0 0 32,4 33,28
31 18.8.2017 12:30 0 0 36,14 32,14
32 18.8.2017 12:00 0 0 40,52 30,59
33 18.8.2017 11:30 0 0 42,54 30,09
34 18.8.2017 11:00 0 0 45,29 30,01
35 18.8.2017 10:30 0 0 47,26 29,31
36 18.8.2017 10:00 0 0 48,25 27,99
37 18.8.2017 09:30 0 0 55,49 26,75
38 18.8.2017 09:00 0 0 61,37 24,88
39 18.8.2017 08:30 0 0 66,19 23,25
40 18.8.2017 08:00 0 0 71,62 21,39
41 18.8.2017 07:30 0 0 80,48 19,29
42 18.8.2017 07:00 0 0 92,12 17,24
43 18.8.2017 06:30 0 0 93,65 15,95
44 18.8.2017 06:00 0 0 93,55 15,29
© 2011 Ministrstvo za kmetijstvo, gozdarstvo in prehrano. Vse pravice pridržane.